首页
METAR-TAF:

METAR-TAF

机场 :

阿尔汉格尔斯克, 俄罗斯

纬度: 64-30N, 经度: 040-44E, 海拔: 13米

当前天气观测

该预报发布于43分钟前的16:30 UTC
风速6节,风向南转西南,在南转南东西之间变化
温度 -1°C
湿度 93%
气压 1037 hPa
能见度10公里或以上
阴天层高于1200英尺

METAR: ULAA 201630Z 21003MPS 160V260 9999 OVC012 M01/M02 Q1037 R26/590340 NOSIG RMK QFE776/1035

时间: 20:13 (17:13 UTC)

预报

该预报发布于3小时和14分钟前的13:59 UTC
预报有效从20日的 15点(UTC)到 21日的 15点(UTC)
风速6节,风向南转西南
能見度: 6000
多云层高于1100英尺
小雪
短暂存在
从 20日的 15点(UTC)到 20日的 19点(UTC)
风速8节,风向西南,有时为21节阵风
能見度: 2100
阴天层高于500英尺
(小) 冻, 雨, 轻雾
从 20日的 1900点(UTC)
风速6节,风向西南
能見度: 6000
多云层高于700英尺
短暂存在
从 20日的 19点(UTC)到 21日的 15点(UTC)
风速6节,风向西转西南,有时为17节阵风
能見度: 3100
多云层高于500英尺
小雪, 雨, 轻雾

TAF: ULAA 201359Z 2015/2115 20003MPS 6000 -SN BKN011 TEMPO 2015/2019 22004G11MPS 2100 -FZRA BR OVC005 FM201900 23003MPS 6000 BKN007 TEMPO 2019/2115 25003G09MPS 3100 -SNRA BR BKN005

超过4000个机场的气象观测和天气预报(METAR&TAF报告)。

可查询的气象台以黄色和红色小点在地图上表示。

将鼠标移到小点上方,可查看气象台名称。

然后点击查看天气观测和预报。

如需切换地图:点击带黑十字的绿色按钮放大地图;点击带横线的绿色按钮缩小地图;或者点击绿色箭头查看邻近地区的地图。


METAR-TAF: